Sims, Kansas
Current Conditions -  °F | °C
As of 7:53 PM on Wednesday 26 Nov 2014 (Local Time) from KJLN Reporting Station
Overcast Overcast  
Wind Chill: 27°   Ceiling: 3600
Heat Index: 37°   Visibility: 10mi
Dew Point: 25°   Wind: 18mph
Humidity: 62%   Direction: 310°NW
Pressure: 30.3"   Gusts: NA
Location:  37.0595°N, 94.7764°W
Report Text: KJLN 270153Z 31016KT 10SM OVC036 03/M04 A3030 RMK AO2 PK WND 33028/0122 SLP264 T00281039
Loading
Personal Weather Stations






























Interactive Weather Map New forecast layout! Learn more

10-Day Weather Forecast

Advertisements
Track Severe Weather on mobile